Monday, November 20, 2017, 2:09 PM EST
Back to Local

KLGA, New York La Guardia Airport

Location: Astoria, NY, United States Lat: 40.783
Local Time: 2:09 PM EST (19:09 GMT) Lon: -73.883
Time Zone: US/Eastern Elev: 22 ft

Show me the last for .
Show Decoded

2017-11-20 13:51 METAR KLGA 201851Z 26017G25KT 10SM FEW060 08/M06 A3002 RMK AO2 PK WND 29026/1829
                 SLP165 T00831061 =
2017-11-20 12:51 METAR KLGA 201751Z 28015G20KT 10SM FEW065 08/M06 A3001 RMK AO2 PK WND 26026/1658
                 SLP161 931000 60000 T00831061 10083 20028 58011 =
2017-11-20 11:51 METAR KLGA 201651Z 27017G23KT 10SM SCT060 07/M06 A3002 RMK AO2 SLP164 T00721056
                 =
2017-11-20 10:51 METAR KLGA 201551Z 28012G22KT 10SM BKN055 06/M05 A3004 RMK AO2 SLP170 T00561050
                 =
2017-11-20 09:51 METAR KLGA 201451Z 26012G20KT 10SM SCT043 SCT055 BKN070 05/M04 A3004 RMK AO2
                 SLP172 60000 T00501044 51017 =
2017-11-20 08:51 METAR KLGA 201351Z 26014G23KT 10SM FEW035 BKN060 04/M04 A3004 RMK AO2 SLP171
                 T00391044 =
2017-11-20 07:51 METAR KLGA 201251Z 26010G18KT 10SM FEW036 BKN046 BKN055 03/M05 A3002 RMK AO2
                 SNE11 SLP164 P0000 T00331050 =
2017-11-20 06:51 METAR KLGA 201151Z 27014G21KT 9SM -SN FEW014 BKN036 OVC065 04/M03 A2999 RMK AO2
                 SNB46 SLP155 VIS NW-N 1 1/2 931000 P0000 60000 70002 T00391028 10056 20039 51030
                 =
2017-11-20 05:51 METAR KLGA 201051Z 26012KT 10SM FEW045 BKN075 04/M04 A2996 RMK AO2 SLP146
                 T00391039 =
2017-11-20 04:51 METAR KLGA 200951Z 27012KT 10SM FEW048 BKN075 04/M04 A2993 RMK AO2 SLP135
                 T00391044 =
2017-11-20 03:51 METAR KLGA 200851Z 29013G21KT 10SM FEW049 BKN080 04/M04 A2990 RMK AO2 SLP125
                 T00441039 53029 =
2017-11-20 02:51 METAR KLGA 200751Z 29012KT 10SM OVC080 05/M03 A2987 RMK AO2 SLP114 T00501033 =
2017-11-20 01:51 METAR KLGA 200651Z 28013KT 10SM OVC075 06/M03 A2984 RMK AO2 SLP105 T00561033 =
2017-11-20 00:51 METAR KLGA 200551Z 27014KT 10SM SCT070 BKN090 06/M02 A2981 RMK AO2 SLP095 60000
                 T00561022 10083 20044 53010 =
2017-11-19 23:51 METAR KLGA 200451Z 28013G20KT 10SM OVC090 06/M01 A2979 RMK AO2 RAE0352 SLP089
                 P0000 T00561006 401560044 =
2017-11-19 22:51 METAR KLGA 200351Z 29011KT 10SM -RA SCT028 BKN047 OVC060 04/01 A2978 RMK AO2 PK
                 WND 30039/0323 RAB23 CIG 027 R22 SW SLP085 P0000 T00440006 =
2017-11-19 22:49 METAR KLGA 200349Z 30010G21KT 10SM -RA SCT028 BKN047 OVC055 04/01 A2978 RMK AO2
                 PK WND 30039/0323 RAB23 CIG 027 R22 SW P0000 =
2017-11-19 22:36 METAR KLGA 200336Z 30016G23KT 10SM -RA BKN024 BKN050 OVC060 04/M01 A2979 RMK AO2
                 PK WND 30039/0323 RAB23 P0000 T00441006 =
2017-11-19 21:51 METAR KLGA 200251Z 28010G21KT 10SM FEW050 SCT095 07/M02 A2975 RMK AO2 SLP074
                 T00721017 51021 =
2017-11-19 20:51 METAR KLGA 200151Z 29012G20KT 10SM OVC080 08/M03 A2973 RMK AO2 SLP068 T00781028
                 =
2017-11-19 19:51 METAR KLGA 200051Z 30012KT 10SM BKN075 08/M03 A2971 RMK AO2 SLP061 T00781028 =
2017-11-19 18:51 METAR KLGA 192351Z 30011KT 10SM SCT070 08/M03 A2969 RMK AO2 SLP053 T00831033
                 10106 20078 51032 =
2017-11-19 17:51 METAR KLGA 192251Z 30014KT 10SM SCT060 08/M03 A2966 RMK AO2 PK WND 31029/2211
                 SLP045 T00831028 =
2017-11-19 16:51 METAR KLGA 192151Z 30017G24KT 10SM SCT050 08/M03 A2962 RMK AO2 PK WND 33028/2122
                 SLP031 T00831028 =
2017-11-19 15:51 METAR KLGA 192051Z 32025G33KT 10SM FEW040 SCT048 09/M02 A2959 RMK AO2 PK WND
                 30035/2028 SLP021 T00891017 53034 =
2017-11-19 14:51 METAR KLGA 191951Z 31017G30KT 10SM FEW040 BKN049 09/00 A2956 RMK AO2 PK WND
                 28038/1852 SLP008 T00940000 =

Support USWX by starting your Amazon purchase here.